sensor_id;sensor_type;location;lat;lon;timestamp;P1;durP1;ratioP1;P2;durP2;ratioP2
69511;SDS011;70777;52.034;4.644;2023-06-22T00:01:57;15.13;;;9.38;;
69511;SDS011;70777;52.034;4.644;2023-06-22T00:04:23;14.98;;;8.65;;
69511;SDS011;70777;52.034;4.644;2023-06-22T00:06:49;16.55;;;9.18;;
69511;SDS011;70777;52.034;4.644;2023-06-22T00:09:14;15.50;;;9.00;;
69511;SDS011;70777;52.034;4.644;2023-06-22T00:11:39;12.52;;;7.13;;
69511;SDS011;70777;52.034;4.644;2023-06-22T00:14:05;15.68;;;8.93;;
69511;SDS011;70777;52.034;4.644;2023-06-22T00:16:33;16.67;;;9.18;;
69511;SDS011;70777;52.034;4.644;2023-06-22T00:18:59;16.50;;;9.02;;
69511;SDS011;70777;52.034;4.644;2023-06-22T00:21:28;12.98;;;7.60;;
69511;SDS011;70777;52.034;4.644;2023-06-22T00:23:54;15.05;;;9.32;;
69511;SDS011;70777;52.034;4.644;2023-06-22T00:26:20;15.10;;;8.65;;
69511;SDS011;70777;52.034;4.644;2023-06-22T00:28:46;15.60;;;8.85;;
69511;SDS011;70777;52.034;4.644;2023-06-22T00:31:12;27.45;;;15.05;;
69511;SDS011;70777;52.034;4.644;2023-06-22T00:33:38;25.45;;;14.57;;
69511;SDS011;70777;52.034;4.644;2023-06-22T00:36:03;23.98;;;14.73;;
69511;SDS011;70777;52.034;4.644;2023-06-22T00:38:29;26.30;;;15.63;;
69511;SDS011;70777;52.034;4.644;2023-06-22T00:40:54;24.33;;;15.48;;
69511;SDS011;70777;52.034;4.644;2023-06-22T00:43:20;36.35;;;18.75;;
69511;SDS011;70777;52.034;4.644;2023-06-22T00:45:45;30.00;;;17.75;;
69511;SDS011;70777;52.034;4.644;2023-06-22T00:48:11;29.70;;;16.42;;
69511;SDS011;70777;52.034;4.644;2023-06-22T00:50:37;21.52;;;13.80;;
69511;SDS011;70777;52.034;4.644;2023-06-22T00:53:03;26.20;;;15.27;;
69511;SDS011;70777;52.034;4.644;2023-06-22T00:55:33;30.00;;;17.05;;
69511;SDS011;70777;52.034;4.644;2023-06-22T00:58:02;33.78;;;17.65;;
69511;SDS011;70777;52.034;4.644;2023-06-22T01:00:30;26.48;;;16.50;;
69511;SDS011;70777;52.034;4.644;2023-06-22T01:02:57;22.20;;;12.60;;
69511;SDS011;70777;52.034;4.644;2023-06-22T01:05:23;18.27;;;11.55;;
69511;SDS011;70777;52.034;4.644;2023-06-22T01:07:54;21.63;;;12.40;;
69511;SDS011;70777;52.034;4.644;2023-06-22T01:10:40;17.08;;;9.88;;
69511;SDS011;70777;52.034;4.644;2023-06-22T01:13:15;22.50;;;13.07;;
69511;SDS011;70777;52.034;4.644;2023-06-22T01:15:51;19.77;;;11.90;;
69511;SDS011;70777;52.034;4.644;2023-06-22T01:18:21;24.80;;;15.57;;
69511;SDS011;70777;52.034;4.644;2023-06-22T01:20:50;28.00;;;16.83;;
69511;SDS011;70777;52.034;4.644;2023-06-22T01:23:26;30.52;;;18.27;;
69511;SDS011;70777;52.034;4.644;2023-06-22T01:28:59;32.33;;;17.92;;
69511;SDS011;70777;52.034;4.644;2023-06-22T01:31:26;37.83;;;21.05;;
69511;SDS011;70777;52.034;4.644;2023-06-22T01:33:57;35.38;;;20.88;;
69511;SDS011;70777;52.034;4.644;2023-06-22T01:36:24;34.83;;;20.85;;
69511;SDS011;70777;52.034;4.644;2023-06-22T01:38:51;26.38;;;16.48;;
69511;SDS011;70777;52.034;4.644;2023-06-22T01:41:17;33.72;;;19.02;;
69511;SDS011;70777;52.034;4.644;2023-06-22T01:43:43;32.38;;;17.05;;
69511;SDS011;70777;52.034;4.644;2023-06-22T01:46:09;29.17;;;17.08;;
69511;SDS011;70777;52.034;4.644;2023-06-22T01:48:35;27.85;;;14.85;;
69511;SDS011;70777;52.034;4.644;2023-06-22T01:51:00;27.08;;;14.77;;
69511;SDS011;70777;52.034;4.644;2023-06-22T01:53:26;22.25;;;13.55;;
69511;SDS011;70777;52.034;4.644;2023-06-22T01:55:51;26.92;;;14.80;;
69511;SDS011;70777;52.034;4.644;2023-06-22T01:58:17;26.10;;;13.65;;
69511;SDS011;70777;52.034;4.644;2023-06-22T02:00:50;32.03;;;19.13;;
69511;SDS011;70777;52.034;4.644;2023-06-22T02:03:19;25.38;;;14.85;;
69511;SDS011;70777;52.034;4.644;2023-06-22T02:05:49;29.27;;;17.33;;
69511;SDS011;70777;52.034;4.644;2023-06-22T02:08:17;25.35;;;14.13;;
69511;SDS011;70777;52.034;4.644;2023-06-22T02:10:46;26.63;;;13.77;;
69511;SDS011;70777;52.034;4.644;2023-06-22T02:13:12;26.58;;;14.07;;
69511;SDS011;70777;52.034;4.644;2023-06-22T02:15:38;21.60;;;13.38;;
69511;SDS011;70777;52.034;4.644;2023-06-22T02:18:03;25.58;;;13.35;;
69511;SDS011;70777;52.034;4.644;2023-06-22T02:20:30;25.30;;;14.67;;
69511;SDS011;70777;52.034;4.644;2023-06-22T02:22:55;22.20;;;13.05;;
69511;SDS011;70777;52.034;4.644;2023-06-22T02:25:21;24.05;;;12.98;;
69511;SDS011;70777;52.034;4.644;2023-06-22T02:27:46;23.33;;;14.35;;
69511;SDS011;70777;52.034;4.644;2023-06-22T02:30:12;22.55;;;12.77;;
69511;SDS011;70777;52.034;4.644;2023-06-22T02:32:39;23.73;;;13.18;;
69511;SDS011;70777;52.034;4.644;2023-06-22T02:35:08;23.67;;;13.10;;
69511;SDS011;70777;52.034;4.644;2023-06-22T02:37:37;26.10;;;15.07;;
69511;SDS011;70777;52.034;4.644;2023-06-22T02:40:04;32.80;;;19.98;;
69511;SDS011;70777;52.034;4.644;2023-06-22T02:42:32;25.48;;;14.18;;
69511;SDS011;70777;52.034;4.644;2023-06-22T02:44:58;32.90;;;19.15;;
69511;SDS011;70777;52.034;4.644;2023-06-22T02:47:23;31.33;;;17.70;;
69511;SDS011;70777;52.034;4.644;2023-06-22T02:49:48;34.80;;;18.67;;
69511;SDS011;70777;52.034;4.644;2023-06-22T02:52:14;33.33;;;18.90;;
69511;SDS011;70777;52.034;4.644;2023-06-22T02:54:39;23.38;;;14.82;;
69511;SDS011;70777;52.034;4.644;2023-06-22T02:57:05;27.60;;;14.85;;
69511;SDS011;70777;52.034;4.644;2023-06-22T02:59:30;32.15;;;17.67;;
69511;SDS011;70777;52.034;4.644;2023-06-22T03:01:55;29.65;;;16.15;;
69511;SDS011;70777;52.034;4.644;2023-06-22T03:04:21;33.58;;;19.67;;
69511;SDS011;70777;52.034;4.644;2023-06-22T03:06:46;40.80;;;21.75;;
69511;SDS011;70777;52.034;4.644;2023-06-22T03:09:16;43.95;;;23.88;;
69511;SDS011;70777;52.034;4.644;2023-06-22T03:11:42;40.47;;;21.77;;
69511;SDS011;70777;52.034;4.644;2023-06-22T03:14:07;35.55;;;20.42;;
69511;SDS011;70777;52.034;4.644;2023-06-22T03:16:33;35.05;;;20.73;;
69511;SDS011;70777;52.034;4.644;2023-06-22T03:18:58;31.42;;;17.02;;
69511;SDS011;70777;52.034;4.644;2023-06-22T03:21:27;33.50;;;18.80;;
69511;SDS011;70777;52.034;4.644;2023-06-22T03:23:53;31.67;;;18.63;;
69511;SDS011;70777;52.034;4.644;2023-06-22T03:26:19;37.83;;;20.77;;
69511;SDS011;70777;52.034;4.644;2023-06-22T03:28:44;34.25;;;18.65;;
69511;SDS011;70777;52.034;4.644;2023-06-22T03:31:10;33.00;;;18.70;;
69511;SDS011;70777;52.034;4.644;2023-06-22T03:33:35;40.40;;;23.00;;
69511;SDS011;70777;52.034;4.644;2023-06-22T03:36:01;35.00;;;17.85;;
69511;SDS011;70777;52.034;4.644;2023-06-22T03:38:26;30.23;;;16.88;;
69511;SDS011;70777;52.034;4.644;2023-06-22T03:40:52;31.85;;;18.52;;
69511;SDS011;70777;52.034;4.644;2023-06-22T03:43:17;39.42;;;21.75;;
69511;SDS011;70777;52.034;4.644;2023-06-22T03:45:43;38.03;;;22.08;;
69511;SDS011;70777;52.034;4.644;2023-06-22T03:48:10;49.75;;;27.35;;
69511;SDS011;70777;52.034;4.644;2023-06-22T03:50:36;43.65;;;25.23;;
69511;SDS011;70777;52.034;4.644;2023-06-22T03:53:01;47.72;;;26.25;;
69511;SDS011;70777;52.034;4.644;2023-06-22T03:55:27;56.95;;;31.85;;
69511;SDS011;70777;52.034;4.644;2023-06-22T03:57:53;55.97;;;30.42;;
69511;SDS011;70777;52.034;4.644;2023-06-22T04:00:21;62.10;;;34.15;;
69511;SDS011;70777;52.034;4.644;2023-06-22T04:02:47;43.55;;;24.58;;
69511;SDS011;70777;52.034;4.644;2023-06-22T04:05:13;47.75;;;26.08;;
69511;SDS011;70777;52.034;4.644;2023-06-22T04:07:38;46.28;;;25.25;;
69511;SDS011;70777;52.034;4.644;2023-06-22T04:10:04;62.60;;;31.08;;
69511;SDS011;70777;52.034;4.644;2023-06-22T04:12:30;69.32;;;35.30;;
69511;SDS011;70777;52.034;4.644;2023-06-22T04:14:55;59.22;;;32.38;;
69511;SDS011;70777;52.034;4.644;2023-06-22T04:17:21;58.58;;;31.75;;
69511;SDS011;70777;52.034;4.644;2023-06-22T04:19:49;69.05;;;33.97;;
69511;SDS011;70777;52.034;4.644;2023-06-22T04:22:15;66.57;;;34.40;;
69511;SDS011;70777;52.034;4.644;2023-06-22T04:24:40;63.95;;;33.03;;
69511;SDS011;70777;52.034;4.644;2023-06-22T04:27:06;57.42;;;31.95;;
69511;SDS011;70777;52.034;4.644;2023-06-22T04:29:31;59.97;;;32.55;;
69511;SDS011;70777;52.034;4.644;2023-06-22T04:31:57;61.92;;;32.30;;
69511;SDS011;70777;52.034;4.644;2023-06-22T04:34:24;60.60;;;31.03;;
69511;SDS011;70777;52.034;4.644;2023-06-22T04:36:52;50.67;;;27.73;;
69511;SDS011;70777;52.034;4.644;2023-06-22T04:39:18;59.03;;;30.65;;
69511;SDS011;70777;52.034;4.644;2023-06-22T04:41:43;49.55;;;26.73;;
69511;SDS011;70777;52.034;4.644;2023-06-22T04:46:35;54.25;;;26.20;;
69511;SDS011;70777;52.034;4.644;2023-06-22T04:49:06;44.28;;;25.05;;
69511;SDS011;70777;52.034;4.644;2023-06-22T04:51:40;42.92;;;25.30;;
69511;SDS011;70777;52.034;4.644;2023-06-22T04:54:07;38.13;;;23.70;;
69511;SDS011;70777;52.034;4.644;2023-06-22T04:56:33;37.35;;;21.45;;
69511;SDS011;70777;52.034;4.644;2023-06-22T04:58:58;38.70;;;22.73;;
69511;SDS011;70777;52.034;4.644;2023-06-22T05:01:24;32.15;;;20.85;;
69511;SDS011;70777;52.034;4.644;2023-06-22T05:03:50;34.30;;;20.02;;
69511;SDS011;70777;52.034;4.644;2023-06-22T05:06:21;30.67;;;19.58;;
69511;SDS011;70777;52.034;4.644;2023-06-22T05:08:49;35.60;;;20.10;;
69511;SDS011;70777;52.034;4.644;2023-06-22T05:11:16;29.88;;;20.63;;
69511;SDS011;70777;52.034;4.644;2023-06-22T05:13:41;31.70;;;18.88;;
69511;SDS011;70777;52.034;4.644;2023-06-22T05:16:07;30.80;;;19.98;;
69511;SDS011;70777;52.034;4.644;2023-06-22T05:18:32;31.58;;;19.45;;
69511;SDS011;70777;52.034;4.644;2023-06-22T05:20:58;27.17;;;17.88;;
69511;SDS011;70777;52.034;4.644;2023-06-22T05:23:24;32.67;;;18.58;;
69511;SDS011;70777;52.034;4.644;2023-06-22T05:25:50;27.25;;;17.85;;
69511;SDS011;70777;52.034;4.644;2023-06-22T05:28:16;27.63;;;17.45;;
69511;SDS011;70777;52.034;4.644;2023-06-22T05:30:41;23.90;;;15.38;;
69511;SDS011;70777;52.034;4.644;2023-06-22T05:33:07;26.55;;;14.90;;
69511;SDS011;70777;52.034;4.644;2023-06-22T05:35:32;27.05;;;17.23;;
69511;SDS011;70777;52.034;4.644;2023-06-22T05:37:58;21.95;;;14.15;;
69511;SDS011;70777;52.034;4.644;2023-06-22T05:40:23;22.73;;;15.27;;
69511;SDS011;70777;52.034;4.644;2023-06-22T05:42:48;24.10;;;16.20;;
69511;SDS011;70777;52.034;4.644;2023-06-22T05:45:14;21.38;;;15.07;;
69511;SDS011;70777;52.034;4.644;2023-06-22T05:47:39;22.00;;;14.25;;
69511;SDS011;70777;52.034;4.644;2023-06-22T05:50:05;22.30;;;15.02;;
69511;SDS011;70777;52.034;4.644;2023-06-22T05:52:33;23.20;;;15.85;;
69511;SDS011;70777;52.034;4.644;2023-06-22T05:54:58;21.47;;;15.00;;
69511;SDS011;70777;52.034;4.644;2023-06-22T05:57:24;20.37;;;13.87;;
69511;SDS011;70777;52.034;4.644;2023-06-22T05:59:49;20.30;;;14.00;;
69511;SDS011;70777;52.034;4.644;2023-06-22T06:02:15;22.30;;;14.77;;
69511;SDS011;70777;52.034;4.644;2023-06-22T06:04:40;19.97;;;13.97;;
69511;SDS011;70777;52.034;4.644;2023-06-22T06:07:06;19.63;;;13.93;;
69511;SDS011;70777;52.034;4.644;2023-06-22T06:09:32;16.95;;;12.63;;
69511;SDS011;70777;52.034;4.644;2023-06-22T06:11:57;16.50;;;11.17;;
69511;SDS011;70777;52.034;4.644;2023-06-22T06:14:23;18.77;;;13.47;;
69511;SDS011;70777;52.034;4.644;2023-06-22T06:16:48;17.93;;;12.03;;
69511;SDS011;70777;52.034;4.644;2023-06-22T06:19:14;15.60;;;12.30;;
69511;SDS011;70777;52.034;4.644;2023-06-22T06:21:40;23.53;;;13.67;;
69511;SDS011;70777;52.034;4.644;2023-06-22T06:24:05;18.93;;;14.43;;
69511;SDS011;70777;52.034;4.644;2023-06-22T06:26:31;16.93;;;11.60;;
69511;SDS011;70777;52.034;4.644;2023-06-22T06:28:59;19.67;;;13.10;;
69511;SDS011;70777;52.034;4.644;2023-06-22T06:31:25;21.42;;;11.98;;
69511;SDS011;70777;52.034;4.644;2023-06-22T06:33:52;19.88;;;12.30;;
69511;SDS011;70777;52.034;4.644;2023-06-22T06:36:19;17.25;;;12.40;;
69511;SDS011;70777;52.034;4.644;2023-06-22T06:38:44;16.27;;;12.13;;
69511;SDS011;70777;52.034;4.644;2023-06-22T06:41:11;16.30;;;11.00;;
69511;SDS011;70777;52.034;4.644;2023-06-22T06:43:37;19.70;;;11.27;;
69511;SDS011;70777;52.034;4.644;2023-06-22T06:46:03;21.43;;;12.40;;
69511;SDS011;70777;52.034;4.644;2023-06-22T06:48:29;15.83;;;11.40;;
69511;SDS011;70777;52.034;4.644;2023-06-22T06:50:54;16.10;;;12.10;;
69511;SDS011;70777;52.034;4.644;2023-06-22T06:53:20;17.60;;;10.80;;
69511;SDS011;70777;52.034;4.644;2023-06-22T06:55:45;18.43;;;12.03;;
69511;SDS011;70777;52.034;4.644;2023-06-22T06:58:11;16.67;;;11.73;;
69511;SDS011;70777;52.034;4.644;2023-06-22T07:00:38;16.33;;;11.50;;
69511;SDS011;70777;52.034;4.644;2023-06-22T07:03:04;16.03;;;11.13;;
69511;SDS011;70777;52.034;4.644;2023-06-22T07:05:29;14.03;;;9.87;;
69511;SDS011;70777;52.034;4.644;2023-06-22T07:07:54;14.03;;;9.70;;
69511;SDS011;70777;52.034;4.644;2023-06-22T07:10:20;14.60;;;9.57;;
69511;SDS011;70777;52.034;4.644;2023-06-22T07:12:46;14.00;;;9.67;;
69511;SDS011;70777;52.034;4.644;2023-06-22T07:15:11;13.07;;;8.63;;
69511;SDS011;70777;52.034;4.644;2023-06-22T07:17:37;9.43;;;6.97;;
69511;SDS011;70777;52.034;4.644;2023-06-22T07:20:05;8.90;;;6.85;;
69511;SDS011;70777;52.034;4.644;2023-06-22T07:22:41;9.90;;;5.88;;
69511;SDS011;70777;52.034;4.644;2023-06-22T07:25:07;8.90;;;6.93;;
69511;SDS011;70777;52.034;4.644;2023-06-22T07:27:40;10.13;;;6.90;;
69511;SDS011;70777;52.034;4.644;2023-06-22T07:30:10;10.45;;;7.03;;
69511;SDS011;70777;52.034;4.644;2023-06-22T07:35:01;9.30;;;6.70;;
69511;SDS011;70777;52.034;4.644;2023-06-22T07:37:27;10.55;;;6.35;;
69511;SDS011;70777;52.034;4.644;2023-06-22T07:39:54;8.10;;;5.07;;
69511;SDS011;70777;52.034;4.644;2023-06-22T07:42:26;10.00;;;4.75;;
69511;SDS011;70777;52.034;4.644;2023-06-22T07:44:52;6.38;;;4.40;;
69511;SDS011;70777;52.034;4.644;2023-06-22T07:49:44;7.15;;;4.32;;
69511;SDS011;70777;52.034;4.644;2023-06-22T07:54:36;5.97;;;4.43;;
69511;SDS011;70777;52.034;4.644;2023-06-22T07:57:01;7.03;;;3.53;;
69511;SDS011;70777;52.034;4.644;2023-06-22T07:59:27;6.78;;;4.00;;
69511;SDS011;70777;52.034;4.644;2023-06-22T08:01:52;7.17;;;4.43;;
69511;SDS011;70777;52.034;4.644;2023-06-22T08:04:18;6.50;;;4.27;;
69511;SDS011;70777;52.034;4.644;2023-06-22T08:06:44;6.53;;;4.20;;
69511;SDS011;70777;52.034;4.644;2023-06-22T08:09:10;6.93;;;4.90;;
69511;SDS011;70777;52.034;4.644;2023-06-22T08:11:35;6.93;;;5.10;;
69511;SDS011;70777;52.034;4.644;2023-06-22T08:14:00;8.23;;;5.37;;
69511;SDS011;70777;52.034;4.644;2023-06-22T08:16:26;8.15;;;5.80;;
69511;SDS011;70777;52.034;4.644;2023-06-22T08:18:51;9.93;;;6.30;;
69511;SDS011;70777;52.034;4.644;2023-06-22T08:21:17;13.38;;;7.07;;
69511;SDS011;70777;52.034;4.644;2023-06-22T08:23:42;10.83;;;7.50;;
69511;SDS011;70777;52.034;4.644;2023-06-22T08:26:08;12.10;;;9.32;;
69511;SDS011;70777;52.034;4.644;2023-06-22T08:28:33;12.50;;;8.40;;
69511;SDS011;70777;52.034;4.644;2023-06-22T08:30:59;12.33;;;8.30;;
69511;SDS011;70777;52.034;4.644;2023-06-22T08:33:25;10.55;;;7.85;;
69511;SDS011;70777;52.034;4.644;2023-06-22T08:35:53;11.07;;;8.13;;
69511;SDS011;70777;52.034;4.644;2023-06-22T08:38:19;12.88;;;9.75;;
69511;SDS011;70777;52.034;4.644;2023-06-22T08:40:45;13.60;;;8.53;;
69511;SDS011;70777;52.034;4.644;2023-06-22T08:43:10;12.20;;;8.77;;
69511;SDS011;70777;52.034;4.644;2023-06-22T08:48:01;14.87;;;10.90;;
69511;SDS011;70777;52.034;4.644;2023-06-22T08:50:27;16.23;;;10.18;;
69511;SDS011;70777;52.034;4.644;2023-06-22T08:52:52;13.25;;;10.80;;
69511;SDS011;70777;52.034;4.644;2023-06-22T08:55:20;13.95;;;10.52;;
69511;SDS011;70777;52.034;4.644;2023-06-22T08:57:46;15.82;;;11.07;;
69511;SDS011;70777;52.034;4.644;2023-06-22T09:00:12;14.77;;;11.13;;
69511;SDS011;70777;52.034;4.644;2023-06-22T09:02:41;13.27;;;10.23;;
69511;SDS011;70777;52.034;4.644;2023-06-22T09:05:07;15.30;;;10.15;;
69511;SDS011;70777;52.034;4.644;2023-06-22T09:07:33;17.73;;;11.48;;
69511;SDS011;70777;52.034;4.644;2023-06-22T09:12:24;16.43;;;11.90;;
69511;SDS011;70777;52.034;4.644;2023-06-22T09:14:52;15.35;;;11.82;;
69511;SDS011;70777;52.034;4.644;2023-06-22T09:17:18;16.98;;;11.27;;
69511;SDS011;70777;52.034;4.644;2023-06-22T09:19:43;13.93;;;10.87;;
69511;SDS011;70777;52.034;4.644;2023-06-22T09:22:09;18.23;;;10.87;;
69511;SDS011;70777;52.034;4.644;2023-06-22T09:24:34;13.17;;;8.83;;
69511;SDS011;70777;52.034;4.644;2023-06-22T09:27:00;15.50;;;9.47;;
69511;SDS011;70777;52.034;4.644;2023-06-22T09:29:26;12.23;;;9.50;;
69511;SDS011;70777;52.034;4.644;2023-06-22T09:31:51;13.10;;;8.47;;
69511;SDS011;70777;52.034;4.644;2023-06-22T09:34:18;13.65;;;10.18;;
69511;SDS011;70777;52.034;4.644;2023-06-22T09:36:45;12.60;;;8.38;;
69511;SDS011;70777;52.034;4.644;2023-06-22T09:39:11;14.05;;;10.38;;
69511;SDS011;70777;52.034;4.644;2023-06-22T09:41:37;15.23;;;10.13;;
69511;SDS011;70777;52.034;4.644;2023-06-22T09:44:02;14.83;;;10.47;;
69511;SDS011;70777;52.034;4.644;2023-06-22T09:46:28;13.30;;;9.63;;
69511;SDS011;70777;52.034;4.644;2023-06-22T09:48:53;16.63;;;10.87;;
69511;SDS011;70777;52.034;4.644;2023-06-22T09:51:19;15.93;;;11.10;;
69511;SDS011;70777;52.034;4.644;2023-06-22T09:53:46;15.38;;;10.77;;
69511;SDS011;70777;52.034;4.644;2023-06-22T09:56:12;16.40;;;10.82;;
69511;SDS011;70777;52.034;4.644;2023-06-22T09:58:41;15.93;;;10.57;;
69511;SDS011;70777;52.034;4.644;2023-06-22T10:01:08;12.10;;;9.18;;
69511;SDS011;70777;52.034;4.644;2023-06-22T10:03:33;12.48;;;8.95;;
69511;SDS011;70777;52.034;4.644;2023-06-22T10:05:59;16.03;;;9.70;;
69511;SDS011;70777;52.034;4.644;2023-06-22T10:08:24;14.07;;;9.57;;
69511;SDS011;70777;52.034;4.644;2023-06-22T10:10:50;12.13;;;10.40;;
69511;SDS011;70777;52.034;4.644;2023-06-22T10:13:15;13.63;;;11.50;;
69511;SDS011;70777;52.034;4.644;2023-06-22T10:15:41;14.13;;;10.20;;
69511;SDS011;70777;52.034;4.644;2023-06-22T10:18:06;16.33;;;11.50;;
69511;SDS011;70777;52.034;4.644;2023-06-22T10:20:32;15.90;;;10.73;;
69511;SDS011;70777;52.034;4.644;2023-06-22T10:22:57;15.57;;;11.00;;
69511;SDS011;70777;52.034;4.644;2023-06-22T10:25:23;15.33;;;11.67;;
69511;SDS011;70777;52.034;4.644;2023-06-22T10:27:48;14.27;;;10.30;;
69511;SDS011;70777;52.034;4.644;2023-06-22T10:30:14;13.77;;;10.83;;
69511;SDS011;70777;52.034;4.644;2023-06-22T10:32:39;18.23;;;12.43;;
69511;SDS011;70777;52.034;4.644;2023-06-22T10:35:06;15.63;;;11.52;;
69511;SDS011;70777;52.034;4.644;2023-06-22T10:37:31;16.95;;;12.07;;
69511;SDS011;70777;52.034;4.644;2023-06-22T10:39:57;14.50;;;12.13;;
69511;SDS011;70777;52.034;4.644;2023-06-22T10:42:22;13.17;;;9.83;;
69511;SDS011;70777;52.034;4.644;2023-06-22T10:44:48;15.97;;;10.67;;
69511;SDS011;70777;52.034;4.644;2023-06-22T10:47:13;14.43;;;11.70;;
69511;SDS011;70777;52.034;4.644;2023-06-22T10:49:39;14.67;;;11.10;;
69511;SDS011;70777;52.034;4.644;2023-06-22T10:52:06;14.30;;;11.53;;
69511;SDS011;70777;52.034;4.644;2023-06-22T10:54:32;16.75;;;11.15;;
69511;SDS011;70777;52.034;4.644;2023-06-22T10:59:24;16.07;;;10.67;;
69511;SDS011;70777;52.034;4.644;2023-06-22T11:01:50;14.77;;;8.90;;
69511;SDS011;70777;52.034;4.644;2023-06-22T11:04:16;14.93;;;10.20;;
69511;SDS011;70777;52.034;4.644;2023-06-22T11:06:42;13.65;;;10.65;;
69511;SDS011;70777;52.034;4.644;2023-06-22T11:09:08;14.52;;;10.23;;
69511;SDS011;70777;52.034;4.644;2023-06-22T11:11:34;12.40;;;9.10;;
69511;SDS011;70777;52.034;4.644;2023-06-22T11:13:59;10.20;;;8.57;;
69511;SDS011;70777;52.034;4.644;2023-06-22T11:16:24;12.03;;;8.87;;
69511;SDS011;70777;52.034;4.644;2023-06-22T11:18:50;13.50;;;8.47;;
69511;SDS011;70777;52.034;4.644;2023-06-22T11:21:15;13.67;;;10.83;;
69511;SDS011;70777;52.034;4.644;2023-06-22T11:23:41;14.90;;;10.27;;
69511;SDS011;70777;52.034;4.644;2023-06-22T11:26:07;12.45;;;9.35;;
69511;SDS011;70777;52.034;4.644;2023-06-22T11:28:32;14.57;;;10.37;;
69511;SDS011;70777;52.034;4.644;2023-06-22T11:30:58;16.33;;;10.00;;
69511;SDS011;70777;52.034;4.644;2023-06-22T11:33:23;13.53;;;8.70;;
69511;SDS011;70777;52.034;4.644;2023-06-22T11:35:49;12.03;;;9.17;;
69511;SDS011;70777;52.034;4.644;2023-06-22T11:38:15;14.27;;;9.87;;
69511;SDS011;70777;52.034;4.644;2023-06-22T11:40:40;19.43;;;13.93;;
69511;SDS011;70777;52.034;4.644;2023-06-22T11:43:05;19.50;;;13.93;;
69511;SDS011;70777;52.034;4.644;2023-06-22T11:45:31;20.37;;;14.90;;
69511;SDS011;70777;52.034;4.644;2023-06-22T11:47:56;16.10;;;12.17;;
69511;SDS011;70777;52.034;4.644;2023-06-22T11:50:22;18.47;;;14.30;;
69511;SDS011;70777;52.034;4.644;2023-06-22T11:52:47;17.73;;;13.73;;
69511;SDS011;70777;52.034;4.644;2023-06-22T11:55:13;18.93;;;12.90;;
69511;SDS011;70777;52.034;4.644;2023-06-22T11:57:38;20.93;;;15.00;;
69511;SDS011;70777;52.034;4.644;2023-06-22T12:00:18;17.85;;;12.30;;
69511;SDS011;70777;52.034;4.644;2023-06-22T12:02:44;19.47;;;13.50;;
69511;SDS011;70777;52.034;4.644;2023-06-22T12:05:10;19.20;;;12.95;;
69511;SDS011;70777;52.034;4.644;2023-06-22T12:07:36;20.83;;;14.00;;
69511;SDS011;70777;52.034;4.644;2023-06-22T12:10:02;25.55;;;15.25;;
69511;SDS011;70777;52.034;4.644;2023-06-22T12:12:28;20.93;;;15.23;;
69511;SDS011;70777;52.034;4.644;2023-06-22T12:14:53;19.07;;;13.73;;
69511;SDS011;70777;52.034;4.644;2023-06-22T12:17:19;18.63;;;14.00;;
69511;SDS011;70777;52.034;4.644;2023-06-22T12:19:44;22.37;;;16.30;;
69511;SDS011;70777;52.034;4.644;2023-06-22T12:22:09;21.50;;;15.63;;
69511;SDS011;70777;52.034;4.644;2023-06-22T12:24:35;22.70;;;17.27;;
69511;SDS011;70777;52.034;4.644;2023-06-22T12:27:00;24.47;;;17.23;;
69511;SDS011;70777;52.034;4.644;2023-06-22T12:29:28;22.95;;;16.67;;
69511;SDS011;70777;52.034;4.644;2023-06-22T12:31:54;22.80;;;17.75;;
69511;SDS011;70777;52.034;4.644;2023-06-22T12:34:20;23.83;;;19.47;;
69511;SDS011;70777;52.034;4.644;2023-06-22T12:36:45;25.83;;;20.40;;
69511;SDS011;70777;52.034;4.644;2023-06-22T12:39:13;26.95;;;20.00;;
69511;SDS011;70777;52.034;4.644;2023-06-22T12:41:38;27.37;;;20.93;;
69511;SDS011;70777;52.034;4.644;2023-06-22T12:44:04;23.07;;;18.73;;
69511;SDS011;70777;52.034;4.644;2023-06-22T12:46:29;25.87;;;19.77;;
69511;SDS011;70777;52.034;4.644;2023-06-22T12:49:01;26.05;;;19.27;;
69511;SDS011;70777;52.034;4.644;2023-06-22T12:51:27;25.30;;;18.73;;
69511;SDS011;70777;52.034;4.644;2023-06-22T12:53:52;22.33;;;18.60;;
69511;SDS011;70777;52.034;4.644;2023-06-22T12:56:18;23.60;;;18.27;;
69511;SDS011;70777;52.034;4.644;2023-06-22T12:58:43;26.63;;;19.53;;
69511;SDS011;70777;52.034;4.644;2023-06-22T13:01:09;25.50;;;16.07;;
69511;SDS011;70777;52.034;4.644;2023-06-22T13:03:34;21.50;;;17.03;;
69511;SDS011;70777;52.034;4.644;2023-06-22T13:05:59;24.83;;;17.37;;
69511;SDS011;70777;52.034;4.644;2023-06-22T13:08:25;24.57;;;18.43;;
69511;SDS011;70777;52.034;4.644;2023-06-22T13:10:50;26.33;;;18.73;;
69511;SDS011;70777;52.034;4.644;2023-06-22T13:13:16;24.07;;;19.57;;
69511;SDS011;70777;52.034;4.644;2023-06-22T13:15:41;24.80;;;18.23;;
69511;SDS011;70777;52.034;4.644;2023-06-22T13:18:07;22.83;;;17.90;;
69511;SDS011;70777;52.034;4.644;2023-06-22T13:20:32;22.70;;;17.07;;
69511;SDS011;70777;52.034;4.644;2023-06-22T13:22:58;27.00;;;18.60;;
69511;SDS011;70777;52.034;4.644;2023-06-22T13:25:23;20.43;;;14.83;;
69511;SDS011;70777;52.034;4.644;2023-06-22T13:27:51;29.83;;;18.77;;
69511;SDS011;70777;52.034;4.644;2023-06-22T13:30:17;23.27;;;15.50;;
69511;SDS011;70777;52.034;4.644;2023-06-22T13:32:42;23.47;;;17.40;;
69511;SDS011;70777;52.034;4.644;2023-06-22T13:35:11;23.90;;;16.43;;
69511;SDS011;70777;52.034;4.644;2023-06-22T13:37:36;23.15;;;18.25;;
69511;SDS011;70777;52.034;4.644;2023-06-22T13:40:02;22.63;;;17.13;;
69511;SDS011;70777;52.034;4.644;2023-06-22T13:42:31;21.63;;;17.42;;
69511;SDS011;70777;52.034;4.644;2023-06-22T13:44:56;22.60;;;16.73;;
69511;SDS011;70777;52.034;4.644;2023-06-22T13:47:22;22.77;;;15.97;;
69511;SDS011;70777;52.034;4.644;2023-06-22T13:49:48;22.90;;;18.07;;
69511;SDS011;70777;52.034;4.644;2023-06-22T13:52:13;28.23;;;18.43;;
69511;SDS011;70777;52.034;4.644;2023-06-22T13:54:39;24.13;;;18.17;;
69511;SDS011;70777;52.034;4.644;2023-06-22T13:57:04;19.73;;;16.93;;
69511;SDS011;70777;52.034;4.644;2023-06-22T13:59:30;20.43;;;18.20;;
69511;SDS011;70777;52.034;4.644;2023-06-22T14:01:56;25.87;;;18.90;;
69511;SDS011;70777;52.034;4.644;2023-06-22T14:04:22;22.00;;;17.43;;
69511;SDS011;70777;52.034;4.644;2023-06-22T14:06:48;24.75;;;18.30;;
69511;SDS011;70777;52.034;4.644;2023-06-22T14:09:14;19.93;;;16.00;;
69511;SDS011;70777;52.034;4.644;2023-06-22T14:11:39;20.57;;;17.97;;
69511;SDS011;70777;52.034;4.644;2023-06-22T14:14:05;23.17;;;17.07;;
69511;SDS011;70777;52.034;4.644;2023-06-22T14:16:30;21.77;;;17.60;;
69511;SDS011;70777;52.034;4.644;2023-06-22T14:18:55;25.67;;;18.40;;
69511;SDS011;70777;52.034;4.644;2023-06-22T14:21:21;23.27;;;18.77;;
69511;SDS011;70777;52.034;4.644;2023-06-22T14:23:46;24.70;;;18.33;;
69511;SDS011;70777;52.034;4.644;2023-06-22T14:26:14;27.05;;;18.75;;
69511;SDS011;70777;52.034;4.644;2023-06-22T14:28:42;22.80;;;18.42;;
69511;SDS011;70777;52.034;4.644;2023-06-22T14:31:15;19.98;;;16.13;;
69511;SDS011;70777;52.034;4.644;2023-06-22T14:33:45;16.42;;;12.88;;
69511;SDS011;70777;52.034;4.644;2023-06-22T14:36:11;14.98;;;11.98;;
69511;SDS011;70777;52.034;4.644;2023-06-22T14:38:37;12.37;;;10.47;;
69511;SDS011;70777;52.034;4.644;2023-06-22T14:41:02;13.47;;;9.63;;